sensor_id;sensor_type;location;lat;lon;timestamp;temperature;humidity
27413;DHT22;14871;52.702;5.230;2022-11-20T00:00:41;4.50;98.00
27413;DHT22;14871;52.702;5.230;2022-11-20T00:03:07;4.50;98.00
27413;DHT22;14871;52.702;5.230;2022-11-20T00:05:32;4.40;98.00
27413;DHT22;14871;52.702;5.230;2022-11-20T00:07:58;4.40;98.00
27413;DHT22;14871;52.702;5.230;2022-11-20T00:10:23;4.40;98.10
27413;DHT22;14871;52.702;5.230;2022-11-20T00:12:49;4.40;98.00
27413;DHT22;14871;52.702;5.230;2022-11-20T00:15:14;4.40;98.20
27413;DHT22;14871;52.702;5.230;2022-11-20T00:17:40;4.50;97.60
27413;DHT22;14871;52.702;5.230;2022-11-20T00:20:05;4.70;96.90
27413;DHT22;14871;52.702;5.230;2022-11-20T00:22:31;4.70;96.80
27413;DHT22;14871;52.702;5.230;2022-11-20T00:24:56;4.60;96.70
27413;DHT22;14871;52.702;5.230;2022-11-20T00:27:23;4.60;97.30
27413;DHT22;14871;52.702;5.230;2022-11-20T00:29:48;4.70;96.70
27413;DHT22;14871;52.702;5.230;2022-11-20T00:32:14;4.60;97.20
27413;DHT22;14871;52.702;5.230;2022-11-20T00:34:39;4.60;97.80
27413;DHT22;14871;52.702;5.230;2022-11-20T00:37:05;4.50;98.00
27413;DHT22;14871;52.702;5.230;2022-11-20T00:39:30;4.40;98.00
27413;DHT22;14871;52.702;5.230;2022-11-20T00:41:55;4.30;98.20
27413;DHT22;14871;52.702;5.230;2022-11-20T00:44:21;4.30;98.40
27413;DHT22;14871;52.702;5.230;2022-11-20T00:46:46;4.20;98.60
27413;DHT22;14871;52.702;5.230;2022-11-20T00:49:12;4.20;98.80
27413;DHT22;14871;52.702;5.230;2022-11-20T00:51:37;4.20;98.80
27413;DHT22;14871;52.702;5.230;2022-11-20T00:54:03;4.20;98.80
27413;DHT22;14871;52.702;5.230;2022-11-20T00:56:28;4.10;98.80
27413;DHT22;14871;52.702;5.230;2022-11-20T00:58:54;4.10;98.90
27413;DHT22;14871;52.702;5.230;2022-11-20T01:01:21;4.10;98.90
27413;DHT22;14871;52.702;5.230;2022-11-20T01:03:47;4.00;99.00
27413;DHT22;14871;52.702;5.230;2022-11-20T01:06:15;4.10;99.10
27413;DHT22;14871;52.702;5.230;2022-11-20T01:08:41;4.00;99.20
27413;DHT22;14871;52.702;5.230;2022-11-20T01:11:08;4.00;99.30
27413;DHT22;14871;52.702;5.230;2022-11-20T01:13:34;4.00;99.40
27413;DHT22;14871;52.702;5.230;2022-11-20T01:16:16;4.00;99.50
27413;DHT22;14871;52.702;5.230;2022-11-20T01:18:42;3.90;99.60
27413;DHT22;14871;52.702;5.230;2022-11-20T01:21:10;3.90;99.60
27413;DHT22;14871;52.702;5.230;2022-11-20T01:23:37;3.90;99.60
27413;DHT22;14871;52.702;5.230;2022-11-20T01:26:04;3.90;99.70
27413;DHT22;14871;52.702;5.230;2022-11-20T01:28:30;3.80;99.70
27413;DHT22;14871;52.702;5.230;2022-11-20T01:30:55;3.80;99.80
27413;DHT22;14871;52.702;5.230;2022-11-20T01:33:21;3.80;99.90
27413;DHT22;14871;52.702;5.230;2022-11-20T01:35:46;3.80;99.90
27413;DHT22;14871;52.702;5.230;2022-11-20T01:38:12;3.80;99.90
27413;DHT22;14871;52.702;5.230;2022-11-20T01:40:37;3.70;99.90
27413;DHT22;14871;52.702;5.230;2022-11-20T01:43:13;3.80;99.90
27413;DHT22;14871;52.702;5.230;2022-11-20T01:48:16;3.70;99.90
27413;DHT22;14871;52.702;5.230;2022-11-20T01:50:41;3.70;99.90
27413;DHT22;14871;52.702;5.230;2022-11-20T01:53:08;3.70;99.90
27413;DHT22;14871;52.702;5.230;2022-11-20T01:55:39;3.80;99.90
27413;DHT22;14871;52.702;5.230;2022-11-20T01:58:06;3.80;99.90
27413;DHT22;14871;52.702;5.230;2022-11-20T02:00:32;3.80;99.90
27413;DHT22;14871;52.702;5.230;2022-11-20T02:02:58;3.70;99.90
27413;DHT22;14871;52.702;5.230;2022-11-20T02:07:50;3.60;99.90
27413;DHT22;14871;52.702;5.230;2022-11-20T02:10:16;3.60;99.90
27413;DHT22;14871;52.702;5.230;2022-11-20T02:12:41;3.60;99.90
27413;DHT22;14871;52.702;5.230;2022-11-20T02:15:25;3.60;99.90
27413;DHT22;14871;52.702;5.230;2022-11-20T02:17:51;3.60;99.90
27413;DHT22;14871;52.702;5.230;2022-11-20T02:20:16;3.60;99.90
27413;DHT22;14871;52.702;5.230;2022-11-20T02:22:46;3.50;99.90
27413;DHT22;14871;52.702;5.230;2022-11-20T02:25:13;3.50;99.90
27413;DHT22;14871;52.702;5.230;2022-11-20T02:27:39;3.50;99.90
27413;DHT22;14871;52.702;5.230;2022-11-20T02:30:05;3.40;99.90
27413;DHT22;14871;52.702;5.230;2022-11-20T02:32:36;3.40;99.90
27413;DHT22;14871;52.702;5.230;2022-11-20T02:37:42;3.40;99.90
27413;DHT22;14871;52.702;5.230;2022-11-20T02:40:08;3.30;99.90
27413;DHT22;14871;52.702;5.230;2022-11-20T02:42:35;3.30;99.90
27413;DHT22;14871;52.702;5.230;2022-11-20T02:45:00;3.30;99.90
27413;DHT22;14871;52.702;5.230;2022-11-20T02:47:26;3.40;99.90
27413;DHT22;14871;52.702;5.230;2022-11-20T02:49:51;3.40;99.90
27413;DHT22;14871;52.702;5.230;2022-11-20T02:52:16;3.30;99.90
27413;DHT22;14871;52.702;5.230;2022-11-20T02:54:42;3.30;99.90
27413;DHT22;14871;52.702;5.230;2022-11-20T02:57:07;3.20;99.90
27413;DHT22;14871;52.702;5.230;2022-11-20T02:59:33;3.20;99.90
27413;DHT22;14871;52.702;5.230;2022-11-20T03:01:58;3.20;99.90
27413;DHT22;14871;52.702;5.230;2022-11-20T03:04:24;3.20;99.90
27413;DHT22;14871;52.702;5.230;2022-11-20T03:06:49;3.20;99.90
27413;DHT22;14871;52.702;5.230;2022-11-20T03:09:15;3.30;99.90
27413;DHT22;14871;52.702;5.230;2022-11-20T03:11:40;3.20;99.90
27413;DHT22;14871;52.702;5.230;2022-11-20T03:14:06;3.20;99.90
27413;DHT22;14871;52.702;5.230;2022-11-20T03:16:31;3.20;99.90
27413;DHT22;14871;52.702;5.230;2022-11-20T03:18:57;3.20;99.90
27413;DHT22;14871;52.702;5.230;2022-11-20T03:21:23;3.10;99.90
27413;DHT22;14871;52.702;5.230;2022-11-20T03:23:49;3.20;99.90
27413;DHT22;14871;52.702;5.230;2022-11-20T03:26:18;3.20;99.90
27413;DHT22;14871;52.702;5.230;2022-11-20T03:28:48;3.10;99.90
27413;DHT22;14871;52.702;5.230;2022-11-20T03:31:14;3.00;99.90
27413;DHT22;14871;52.702;5.230;2022-11-20T03:33:41;3.10;99.90
27413;DHT22;14871;52.702;5.230;2022-11-20T03:36:13;3.00;99.90
27413;DHT22;14871;52.702;5.230;2022-11-20T03:38:39;3.00;99.90
27413;DHT22;14871;52.702;5.230;2022-11-20T03:41:15;3.00;99.90
27413;DHT22;14871;52.702;5.230;2022-11-20T03:43:40;3.10;99.90
27413;DHT22;14871;52.702;5.230;2022-11-20T03:46:06;3.00;99.90
27413;DHT22;14871;52.702;5.230;2022-11-20T03:48:32;3.00;99.90
27413;DHT22;14871;52.702;5.230;2022-11-20T03:51:07;3.00;99.90
27413;DHT22;14871;52.702;5.230;2022-11-20T03:53:33;3.00;99.90
27413;DHT22;14871;52.702;5.230;2022-11-20T03:55:58;2.90;99.90
27413;DHT22;14871;52.702;5.230;2022-11-20T03:58:24;2.90;99.90
27413;DHT22;14871;52.702;5.230;2022-11-20T04:00:49;2.90;99.90
27413;DHT22;14871;52.702;5.230;2022-11-20T04:03:15;2.90;99.90
27413;DHT22;14871;52.702;5.230;2022-11-20T04:05:40;3.00;99.90
27413;DHT22;14871;52.702;5.230;2022-11-20T04:08:05;3.00;99.90
27413;DHT22;14871;52.702;5.230;2022-11-20T04:10:31;3.00;99.90
27413;DHT22;14871;52.702;5.230;2022-11-20T04:12:56;2.90;99.90
27413;DHT22;14871;52.702;5.230;2022-11-20T04:15:22;2.80;99.90
27413;DHT22;14871;52.702;5.230;2022-11-20T04:17:47;2.80;99.90
27413;DHT22;14871;52.702;5.230;2022-11-20T04:20:13;2.80;99.90
27413;DHT22;14871;52.702;5.230;2022-11-20T04:22:38;2.80;99.90
27413;DHT22;14871;52.702;5.230;2022-11-20T04:25:04;2.80;99.90
27413;DHT22;14871;52.702;5.230;2022-11-20T04:27:30;2.80;99.90
27413;DHT22;14871;52.702;5.230;2022-11-20T04:29:55;2.90;99.90
27413;DHT22;14871;52.702;5.230;2022-11-20T04:32:21;2.80;99.90
27413;DHT22;14871;52.702;5.230;2022-11-20T04:34:46;2.80;99.90
27413;DHT22;14871;52.702;5.230;2022-11-20T04:37:12;2.70;99.90
27413;DHT22;14871;52.702;5.230;2022-11-20T04:39:37;2.70;99.90
27413;DHT22;14871;52.702;5.230;2022-11-20T04:42:03;2.70;99.90
27413;DHT22;14871;52.702;5.230;2022-11-20T04:44:47;2.70;99.90
27413;DHT22;14871;52.702;5.230;2022-11-20T04:47:12;2.70;99.90
27413;DHT22;14871;52.702;5.230;2022-11-20T04:49:38;2.70;99.90
27413;DHT22;14871;52.702;5.230;2022-11-20T04:52:03;2.70;99.90
27413;DHT22;14871;52.702;5.230;2022-11-20T04:54:29;2.70;99.90
27413;DHT22;14871;52.702;5.230;2022-11-20T04:56:54;2.80;99.90
27413;DHT22;14871;52.702;5.230;2022-11-20T04:59:20;2.70;99.90
27413;DHT22;14871;52.702;5.230;2022-11-20T05:01:45;2.70;99.90
27413;DHT22;14871;52.702;5.230;2022-11-20T05:04:11;2.70;99.90
27413;DHT22;14871;52.702;5.230;2022-11-20T05:06:36;2.70;99.90
27413;DHT22;14871;52.702;5.230;2022-11-20T05:09:01;2.70;99.90
27413;DHT22;14871;52.702;5.230;2022-11-20T05:11:27;2.60;99.90
27413;DHT22;14871;52.702;5.230;2022-11-20T05:13:54;2.60;99.90
27413;DHT22;14871;52.702;5.230;2022-11-20T05:16:21;2.60;99.90
27413;DHT22;14871;52.702;5.230;2022-11-20T05:18:47;2.50;99.90
27413;DHT22;14871;52.702;5.230;2022-11-20T05:21:13;2.50;99.90
27413;DHT22;14871;52.702;5.230;2022-11-20T05:23:39;2.50;99.90
27413;DHT22;14871;52.702;5.230;2022-11-20T05:26:05;2.50;99.90
27413;DHT22;14871;52.702;5.230;2022-11-20T05:28:32;2.50;99.90
27413;DHT22;14871;52.702;5.230;2022-11-20T05:31:07;2.60;99.90
27413;DHT22;14871;52.702;5.230;2022-11-20T05:33:34;2.50;99.90
27413;DHT22;14871;52.702;5.230;2022-11-20T05:36:00;2.50;99.90
27413;DHT22;14871;52.702;5.230;2022-11-20T05:38:25;2.50;99.90
27413;DHT22;14871;52.702;5.230;2022-11-20T05:40:51;2.40;99.90
27413;DHT22;14871;52.702;5.230;2022-11-20T05:43:16;2.40;99.90
27413;DHT22;14871;52.702;5.230;2022-11-20T05:45:42;2.50;99.90
27413;DHT22;14871;52.702;5.230;2022-11-20T05:48:07;2.40;99.90
27413;DHT22;14871;52.702;5.230;2022-11-20T05:50:33;2.50;99.90
27413;DHT22;14871;52.702;5.230;2022-11-20T05:52:58;2.40;99.90
27413;DHT22;14871;52.702;5.230;2022-11-20T05:55:25;2.50;99.90
27413;DHT22;14871;52.702;5.230;2022-11-20T05:57:51;2.40;99.90
27413;DHT22;14871;52.702;5.230;2022-11-20T06:00:17;2.40;99.90
27413;DHT22;14871;52.702;5.230;2022-11-20T06:02:43;2.50;99.90
27413;DHT22;14871;52.702;5.230;2022-11-20T06:05:08;2.40;99.90
27413;DHT22;14871;52.702;5.230;2022-11-20T06:07:34;2.40;99.90
27413;DHT22;14871;52.702;5.230;2022-11-20T06:09:59;2.40;99.90
27413;DHT22;14871;52.702;5.230;2022-11-20T06:12:25;2.40;99.90
27413;DHT22;14871;52.702;5.230;2022-11-20T06:14:50;2.40;99.90
27413;DHT22;14871;52.702;5.230;2022-11-20T06:17:15;2.40;99.90
27413;DHT22;14871;52.702;5.230;2022-11-20T06:19:41;2.50;99.90
27413;DHT22;14871;52.702;5.230;2022-11-20T06:22:06;2.50;99.90
27413;DHT22;14871;52.702;5.230;2022-11-20T06:24:32;2.60;99.90
27413;DHT22;14871;52.702;5.230;2022-11-20T06:26:57;2.70;99.90
27413;DHT22;14871;52.702;5.230;2022-11-20T06:29:23;2.60;99.90
27413;DHT22;14871;52.702;5.230;2022-11-20T06:31:48;2.50;99.90
27413;DHT22;14871;52.702;5.230;2022-11-20T06:34:14;2.50;99.90
27413;DHT22;14871;52.702;5.230;2022-11-20T06:36:39;2.50;99.90
27413;DHT22;14871;52.702;5.230;2022-11-20T06:39:04;2.50;99.90
27413;DHT22;14871;52.702;5.230;2022-11-20T06:41:30;2.50;99.90
27413;DHT22;14871;52.702;5.230;2022-11-20T06:43:55;2.60;99.90
27413;DHT22;14871;52.702;5.230;2022-11-20T06:46:21;2.50;99.90
27413;DHT22;14871;52.702;5.230;2022-11-20T06:48:47;2.50;99.90
27413;DHT22;14871;52.702;5.230;2022-11-20T06:51:13;2.50;99.90
27413;DHT22;14871;52.702;5.230;2022-11-20T06:53:39;2.50;99.90
27413;DHT22;14871;52.702;5.230;2022-11-20T06:56:05;2.50;99.90
27413;DHT22;14871;52.702;5.230;2022-11-20T06:58:31;2.50;99.90
27413;DHT22;14871;52.702;5.230;2022-11-20T07:01:00;2.50;99.90
27413;DHT22;14871;52.702;5.230;2022-11-20T07:03:26;2.50;99.90
27413;DHT22;14871;52.702;5.230;2022-11-20T07:05:53;2.50;99.90
27413;DHT22;14871;52.702;5.230;2022-11-20T07:08:19;2.50;99.90
27413;DHT22;14871;52.702;5.230;2022-11-20T07:10:44;2.50;99.90
27413;DHT22;14871;52.702;5.230;2022-11-20T07:13:10;2.50;99.90
27413;DHT22;14871;52.702;5.230;2022-11-20T07:15:35;2.60;99.90
27413;DHT22;14871;52.702;5.230;2022-11-20T07:18:01;2.60;99.90
27413;DHT22;14871;52.702;5.230;2022-11-20T07:20:26;2.60;99.90
27413;DHT22;14871;52.702;5.230;2022-11-20T07:22:55;2.60;99.90
27413;DHT22;14871;52.702;5.230;2022-11-20T07:25:22;2.70;99.90
27413;DHT22;14871;52.702;5.230;2022-11-20T07:27:47;2.70;99.90
27413;DHT22;14871;52.702;5.230;2022-11-20T07:30:13;2.80;99.90
27413;DHT22;14871;52.702;5.230;2022-11-20T07:32:39;2.90;99.90
27413;DHT22;14871;52.702;5.230;2022-11-20T07:35:04;2.90;99.90
27413;DHT22;14871;52.702;5.230;2022-11-20T07:37:30;3.00;99.90
27413;DHT22;14871;52.702;5.230;2022-11-20T07:39:55;3.00;99.90
27413;DHT22;14871;52.702;5.230;2022-11-20T07:42:21;3.10;99.90
27413;DHT22;14871;52.702;5.230;2022-11-20T07:44:46;3.20;99.90
27413;DHT22;14871;52.702;5.230;2022-11-20T07:47:12;3.20;99.90
27413;DHT22;14871;52.702;5.230;2022-11-20T07:49:37;3.20;99.90
27413;DHT22;14871;52.702;5.230;2022-11-20T07:52:03;3.20;99.90
27413;DHT22;14871;52.702;5.230;2022-11-20T07:54:28;3.30;99.90
27413;DHT22;14871;52.702;5.230;2022-11-20T07:56:54;3.40;99.90
27413;DHT22;14871;52.702;5.230;2022-11-20T07:59:19;3.40;99.90
27413;DHT22;14871;52.702;5.230;2022-11-20T08:01:45;3.50;99.90
27413;DHT22;14871;52.702;5.230;2022-11-20T08:04:10;3.70;99.90
27413;DHT22;14871;52.702;5.230;2022-11-20T08:06:36;3.70;99.90
27413;DHT22;14871;52.702;5.230;2022-11-20T08:09:02;3.80;99.90
27413;DHT22;14871;52.702;5.230;2022-11-20T08:11:27;3.90;99.90
27413;DHT22;14871;52.702;5.230;2022-11-20T08:14:12;3.90;99.90
27413;DHT22;14871;52.702;5.230;2022-11-20T08:16:41;3.90;99.90
27413;DHT22;14871;52.702;5.230;2022-11-20T08:19:07;4.10;99.90
27413;DHT22;14871;52.702;5.230;2022-11-20T08:21:33;4.10;99.90
27413;DHT22;14871;52.702;5.230;2022-11-20T08:23:59;4.20;99.90
27413;DHT22;14871;52.702;5.230;2022-11-20T08:26:25;4.10;99.90
27413;DHT22;14871;52.702;5.230;2022-11-20T08:28:54;4.10;99.90
27413;DHT22;14871;52.702;5.230;2022-11-20T08:31:20;4.30;99.90
27413;DHT22;14871;52.702;5.230;2022-11-20T08:33:45;4.30;99.90
27413;DHT22;14871;52.702;5.230;2022-11-20T08:36:11;4.40;99.90
27413;DHT22;14871;52.702;5.230;2022-11-20T08:38:36;4.50;99.90
27413;DHT22;14871;52.702;5.230;2022-11-20T08:41:03;4.50;99.90
27413;DHT22;14871;52.702;5.230;2022-11-20T08:43:47;4.60;99.90
27413;DHT22;14871;52.702;5.230;2022-11-20T08:46:13;4.50;99.90
27413;DHT22;14871;52.702;5.230;2022-11-20T08:48:38;4.60;99.90
27413;DHT22;14871;52.702;5.230;2022-11-20T08:51:04;4.60;99.90
27413;DHT22;14871;52.702;5.230;2022-11-20T08:53:30;4.60;99.90
27413;DHT22;14871;52.702;5.230;2022-11-20T08:55:56;4.60;99.90
27413;DHT22;14871;52.702;5.230;2022-11-20T08:58:22;4.60;99.90
27413;DHT22;14871;52.702;5.230;2022-11-20T09:00:47;4.40;99.90
27413;DHT22;14871;52.702;5.230;2022-11-20T09:03:13;4.50;99.90
27413;DHT22;14871;52.702;5.230;2022-11-20T09:05:38;4.50;99.90
27413;DHT22;14871;52.702;5.230;2022-11-20T09:08:04;4.70;99.90
27413;DHT22;14871;52.702;5.230;2022-11-20T09:10:29;4.80;99.90
27413;DHT22;14871;52.702;5.230;2022-11-20T09:12:55;4.70;99.90
27413;DHT22;14871;52.702;5.230;2022-11-20T09:15:21;4.80;99.90
27413;DHT22;14871;52.702;5.230;2022-11-20T09:17:50;4.80;99.90
27413;DHT22;14871;52.702;5.230;2022-11-20T09:20:15;4.90;99.90
27413;DHT22;14871;52.702;5.230;2022-11-20T09:22:41;4.80;99.90
27413;DHT22;14871;52.702;5.230;2022-11-20T09:25:07;4.60;99.90
27413;DHT22;14871;52.702;5.230;2022-11-20T09:27:32;4.60;99.90
27413;DHT22;14871;52.702;5.230;2022-11-20T09:29:58;4.70;99.90
27413;DHT22;14871;52.702;5.230;2022-11-20T09:32:23;4.70;99.90
27413;DHT22;14871;52.702;5.230;2022-11-20T09:34:48;4.80;99.90
27413;DHT22;14871;52.702;5.230;2022-11-20T09:37:14;5.00;99.90
27413;DHT22;14871;52.702;5.230;2022-11-20T09:39:40;4.80;99.90
27413;DHT22;14871;52.702;5.230;2022-11-20T09:42:09;4.80;99.90
27413;DHT22;14871;52.702;5.230;2022-11-20T09:44:48;4.90;99.90
27413;DHT22;14871;52.702;5.230;2022-11-20T09:49:56;5.20;99.90
27413;DHT22;14871;52.702;5.230;2022-11-20T09:55:09;5.10;99.90
27413;DHT22;14871;52.702;5.230;2022-11-20T09:57:36;5.10;99.90
27413;DHT22;14871;52.702;5.230;2022-11-20T10:00:03;5.10;99.90
27413;DHT22;14871;52.702;5.230;2022-11-20T10:07:38;5.30;99.90
27413;DHT22;14871;52.702;5.230;2022-11-20T10:10:05;5.40;99.90
27413;DHT22;14871;52.702;5.230;2022-11-20T10:15:11;5.40;99.90
27413;DHT22;14871;52.702;5.230;2022-11-20T10:17:59;5.50;99.90
27413;DHT22;14871;52.702;5.230;2022-11-20T10:25:43;5.60;99.90
27413;DHT22;14871;52.702;5.230;2022-11-20T10:28:14;5.90;99.40
27413;DHT22;14871;52.702;5.230;2022-11-20T10:30:42;5.90;98.60
27413;DHT22;14871;52.702;5.230;2022-11-20T10:33:24;5.90;98.80
27413;DHT22;14871;52.702;5.230;2022-11-20T10:36:13;5.90;99.30
27413;DHT22;14871;52.702;5.230;2022-11-20T10:38:57;6.20;99.10
27413;DHT22;14871;52.702;5.230;2022-11-20T10:41:26;6.30;99.20
27413;DHT22;14871;52.702;5.230;2022-11-20T10:44:01;6.40;99.30
27413;DHT22;14871;52.702;5.230;2022-11-20T10:46:29;6.30;99.50
27413;DHT22;14871;52.702;5.230;2022-11-20T10:48:58;6.50;99.50
27413;DHT22;14871;52.702;5.230;2022-11-20T10:53:56;6.20;99.60
27413;DHT22;14871;52.702;5.230;2022-11-20T10:56:29;6.10;99.90
27413;DHT22;14871;52.702;5.230;2022-11-20T10:59:03;6.00;99.90
27413;DHT22;14871;52.702;5.230;2022-11-20T11:01:29;6.10;99.90
27413;DHT22;14871;52.702;5.230;2022-11-20T11:03:55;6.10;99.90
27413;DHT22;14871;52.702;5.230;2022-11-20T11:06:37;6.20;99.90
27413;DHT22;14871;52.702;5.230;2022-11-20T11:09:09;6.20;99.90
27413;DHT22;14871;52.702;5.230;2022-11-20T11:11:35;6.10;99.90
27413;DHT22;14871;52.702;5.230;2022-11-20T11:16:31;6.00;99.90
27413;DHT22;14871;52.702;5.230;2022-11-20T11:19:06;5.90;99.90
27413;DHT22;14871;52.702;5.230;2022-11-20T11:21:32;5.60;99.90
27413;DHT22;14871;52.702;5.230;2022-11-20T11:23:59;5.60;99.90
27413;DHT22;14871;52.702;5.230;2022-11-20T11:26:25;5.90;99.90
27413;DHT22;14871;52.702;5.230;2022-11-20T11:31:26;5.90;99.90
27413;DHT22;14871;52.702;5.230;2022-11-20T11:33:51;5.70;99.90
27413;DHT22;14871;52.702;5.230;2022-11-20T11:36:21;5.50;99.90
27413;DHT22;14871;52.702;5.230;2022-11-20T11:38:48;5.70;99.90
27413;DHT22;14871;52.702;5.230;2022-11-20T11:41:20;5.60;99.90
27413;DHT22;14871;52.702;5.230;2022-11-20T11:43:53;5.70;99.90
27413;DHT22;14871;52.702;5.230;2022-11-20T11:46:38;5.70;99.90
27413;DHT22;14871;52.702;5.230;2022-11-20T11:52:13;5.70;99.90
27413;DHT22;14871;52.702;5.230;2022-11-20T11:54:23;5.60;99.90
27413;DHT22;14871;52.702;5.230;2022-11-20T11:56:49;5.60;99.90
27413;DHT22;14871;52.702;5.230;2022-11-20T12:02:01;5.50;99.90
27413;DHT22;14871;52.702;5.230;2022-11-20T12:04:46;5.50;99.90
27413;DHT22;14871;52.702;5.230;2022-11-20T12:07:18;5.40;99.90
27413;DHT22;14871;52.702;5.230;2022-11-20T12:09:46;5.50;99.90
27413;DHT22;14871;52.702;5.230;2022-11-20T12:12:23;5.60;99.90
27413;DHT22;14871;52.702;5.230;2022-11-20T12:14:49;5.50;99.90
27413;DHT22;14871;52.702;5.230;2022-11-20T12:17:18;5.40;99.90
27413;DHT22;14871;52.702;5.230;2022-11-20T12:19:43;5.40;99.90
27413;DHT22;14871;52.702;5.230;2022-11-20T12:24:59;5.30;99.90
27413;DHT22;14871;52.702;5.230;2022-11-20T12:42:54;5.50;99.90
27413;DHT22;14871;52.702;5.230;2022-11-20T12:45:56;5.60;99.90
27413;DHT22;14871;52.702;5.230;2022-11-20T13:01:29;5.40;99.90
27413;DHT22;14871;52.702;5.230;2022-11-20T13:04:09;5.40;99.90
27413;DHT22;14871;52.702;5.230;2022-11-20T13:06:38;5.40;99.90
27413;DHT22;14871;52.702;5.230;2022-11-20T13:09:08;5.50;99.90
27413;DHT22;14871;52.702;5.230;2022-11-20T13:14:12;5.70;99.90
27413;DHT22;14871;52.702;5.230;2022-11-20T13:19:12;5.60;99.90
27413;DHT22;14871;52.702;5.230;2022-11-20T13:21:39;5.70;99.90
27413;DHT22;14871;52.702;5.230;2022-11-20T13:24:20;5.60;99.90
27413;DHT22;14871;52.702;5.230;2022-11-20T13:27:04;5.50;99.90
27413;DHT22;14871;52.702;5.230;2022-11-20T13:29:31;5.60;99.90
27413;DHT22;14871;52.702;5.230;2022-11-20T13:34:31;5.40;99.90
27413;DHT22;14871;52.702;5.230;2022-11-20T13:36:58;5.20;99.90
27413;DHT22;14871;52.702;5.230;2022-11-20T13:39:35;5.20;99.90
27413;DHT22;14871;52.702;5.230;2022-11-20T13:44:44;5.30;99.90
27413;DHT22;14871;52.702;5.230;2022-11-20T13:47:21;5.40;99.90
27413;DHT22;14871;52.702;5.230;2022-11-20T13:49:47;5.30;99.90
27413;DHT22;14871;52.702;5.230;2022-11-20T13:58:15;5.50;99.90
27413;DHT22;14871;52.702;5.230;2022-11-20T14:00:21;5.50;99.90
27413;DHT22;14871;52.702;5.230;2022-11-20T14:05:31;5.70;99.90
27413;DHT22;14871;52.702;5.230;2022-11-20T14:07:59;5.60;99.90
27413;DHT22;14871;52.702;5.230;2022-11-20T14:10:26;5.50;99.90
27413;DHT22;14871;52.702;5.230;2022-11-20T14:12:51;5.50;99.90
27413;DHT22;14871;52.702;5.230;2022-11-20T14:15:28;5.50;99.90
27413;DHT22;14871;52.702;5.230;2022-11-20T14:17:54;5.50;99.90
27413;DHT22;14871;52.702;5.230;2022-11-20T14:20:20;5.60;99.90
27413;DHT22;14871;52.702;5.230;2022-11-20T14:22:48;5.50;99.90
27413;DHT22;14871;52.702;5.230;2022-11-20T14:27:41;5.50;99.90
27413;DHT22;14871;52.702;5.230;2022-11-20T14:30:17;5.50;99.90
27413;DHT22;14871;52.702;5.230;2022-11-20T14:32:44;5.50;99.90
27413;DHT22;14871;52.702;5.230;2022-11-20T14:35:13;5.50;99.90
27413;DHT22;14871;52.702;5.230;2022-11-20T14:37:40;5.50;99.90
27413;DHT22;14871;52.702;5.230;2022-11-20T14:40:21;5.60;99.90
27413;DHT22;14871;52.702;5.230;2022-11-20T14:42:47;5.60;99.90
27413;DHT22;14871;52.702;5.230;2022-11-20T14:45:13;5.70;99.90
27413;DHT22;14871;52.702;5.230;2022-11-20T14:47:38;5.60;99.90
27413;DHT22;14871;52.702;5.230;2022-11-20T14:50:07;5.60;99.90
27413;DHT22;14871;52.702;5.230;2022-11-20T14:52:33;5.60;99.90
27413;DHT22;14871;52.702;5.230;2022-11-20T14:54:59;5.50;99.90
27413;DHT22;14871;52.702;5.230;2022-11-20T14:57:32;5.60;99.90
27413;DHT22;14871;52.702;5.230;2022-11-20T15:00:17;5.60;99.90
27413;DHT22;14871;52.702;5.230;2022-11-20T15:02:47;5.80;99.90
27413;DHT22;14871;52.702;5.230;2022-11-20T15:05:13;5.60;99.90
27413;DHT22;14871;52.702;5.230;2022-11-20T15:07:40;5.60;99.90
27413;DHT22;14871;52.702;5.230;2022-11-20T15:12:47;5.60;99.90
27413;DHT22;14871;52.702;5.230;2022-11-20T15:15:15;5.50;99.90
27413;DHT22;14871;52.702;5.230;2022-11-20T15:17:41;5.50;99.90
27413;DHT22;14871;52.702;5.230;2022-11-20T15:20:14;5.50;99.90
27413;DHT22;14871;52.702;5.230;2022-11-20T15:22:40;5.40;99.90
27413;DHT22;14871;52.702;5.230;2022-11-20T15:25:12;5.30;99.90
27413;DHT22;14871;52.702;5.230;2022-11-20T15:27:38;5.50;99.90
27413;DHT22;14871;52.702;5.230;2022-11-20T15:30:20;5.30;99.90
27413;DHT22;14871;52.702;5.230;2022-11-20T15:32:46;5.10;99.90
27413;DHT22;14871;52.702;5.230;2022-11-20T15:35:12;5.20;99.90
27413;DHT22;14871;52.702;5.230;2022-11-20T15:37:38;5.30;99.90
27413;DHT22;14871;52.702;5.230;2022-11-20T15:40:04;5.30;99.90
27413;DHT22;14871;52.702;5.230;2022-11-20T15:42:30;5.40;99.90
27413;DHT22;14871;52.702;5.230;2022-11-20T15:44:55;5.30;99.90
27413;DHT22;14871;52.702;5.230;2022-11-20T15:47:22;5.30;99.90
27413;DHT22;14871;52.702;5.230;2022-11-20T15:49:50;5.40;99.90
27413;DHT22;14871;52.702;5.230;2022-11-20T15:52:15;5.50;99.90
27413;DHT22;14871;52.702;5.230;2022-11-20T15:54:41;5.50;99.90
27413;DHT22;14871;52.702;5.230;2022-11-20T15:57:07;5.30;99.90
27413;DHT22;14871;52.702;5.230;2022-11-20T15:59:32;5.40;99.90
27413;DHT22;14871;52.702;5.230;2022-11-20T16:01:58;5.40;99.90
27413;DHT22;14871;52.702;5.230;2022-11-20T16:04:23;5.40;99.90
27413;DHT22;14871;52.702;5.230;2022-11-20T16:06:49;5.40;99.90
27413;DHT22;14871;52.702;5.230;2022-11-20T16:09:14;5.40;99.90
27413;DHT22;14871;52.702;5.230;2022-11-20T16:11:40;5.40;99.90
27413;DHT22;14871;52.702;5.230;2022-11-20T16:14:05;5.60;99.90
27413;DHT22;14871;52.702;5.230;2022-11-20T16:16:49;5.60;99.90
27413;DHT22;14871;52.702;5.230;2022-11-20T16:19:15;5.60;99.90
27413;DHT22;14871;52.702;5.230;2022-11-20T16:21:41;5.60;99.90
27413;DHT22;14871;52.702;5.230;2022-11-20T16:24:07;5.30;99.90
27413;DHT22;14871;52.702;5.230;2022-11-20T16:26:35;5.50;99.90
27413;DHT22;14871;52.702;5.230;2022-11-20T16:29:01;5.50;99.90
27413;DHT22;14871;52.702;5.230;2022-11-20T16:31:28;5.60;99.90
27413;DHT22;14871;52.702;5.230;2022-11-20T16:33:57;5.60;99.90
27413;DHT22;14871;52.702;5.230;2022-11-20T16:36:23;5.50;99.90
27413;DHT22;14871;52.702;5.230;2022-11-20T16:39:07;5.50;99.90
27413;DHT22;14871;52.702;5.230;2022-11-20T16:41:33;5.50;99.90
27413;DHT22;14871;52.702;5.230;2022-11-20T16:44:00;5.20;99.90
27413;DHT22;14871;52.702;5.230;2022-11-20T16:46:26;5.20;99.90
27413;DHT22;14871;52.702;5.230;2022-11-20T16:48:53;5.30;99.90
27413;DHT22;14871;52.702;5.230;2022-11-20T16:51:19;5.30;99.90
27413;DHT22;14871;52.702;5.230;2022-11-20T16:53:44;5.40;99.90
27413;DHT22;14871;52.702;5.230;2022-11-20T16:56:17;5.30;99.90
27413;DHT22;14871;52.702;5.230;2022-11-20T16:58:47;5.30;99.90
27413;DHT22;14871;52.702;5.230;2022-11-20T17:01:14;5.30;99.90
27413;DHT22;14871;52.702;5.230;2022-11-20T17:03:40;5.20;99.90
27413;DHT22;14871;52.702;5.230;2022-11-20T17:06:13;5.10;99.90
27413;DHT22;14871;52.702;5.230;2022-11-20T17:08:39;5.10;99.90
27413;DHT22;14871;52.702;5.230;2022-11-20T17:11:08;5.10;99.90
27413;DHT22;14871;52.702;5.230;2022-11-20T17:13:34;5.20;99.90
27413;DHT22;14871;52.702;5.230;2022-11-20T17:16:01;5.20;99.90
27413;DHT22;14871;52.702;5.230;2022-11-20T17:18:27;5.20;99.90
27413;DHT22;14871;52.702;5.230;2022-11-20T17:20:52;5.00;99.90